Time;durP1;ratioP1;P1;durP2;ratioP2;P2;SDS_P1;SDS_P2;PMS_P1;PMS_P2;Temp;Humidity;BMP_temperature;BMP_pressure;BME280_temperature;BME280_humidity;BME280_pressure;Samples;Min_cycle;Max_cycle;Signal;HPM_P1;HPM_P2
2023/03/17 00:02:15;;;;;;;6.70;2.72;;;;;;;-143.48;54.87;118439.88;5053123;28;20098;-66
2023/03/17 00:04:40;;;;;;;5.30;2.42;;;;;;;-143.48;55.11;118439.88;5053171;28;20053;-66
2023/03/17 00:07:05;;;;;;;6.55;2.60;;;;;;;-143.48;55.00;118439.88;5053079;28;20064;-67
2023/03/17 00:09:31;;;;;;;6.38;2.63;;;;;;;-143.48;55.30;118439.88;5053053;28;20388;-67
2023/03/17 00:11:56;;;;;;;7.13;3.67;;;;;;;-143.48;55.45;118439.88;5051763;28;20021;-66
2023/03/17 00:14:21;;;;;;;5.18;2.67;;;;;;;-143.48;55.95;118439.88;5053490;28;20021;-67
2023/03/17 00:16:49;;;;;;;5.95;2.75;;;;;;;-143.48;55.88;118439.88;5057759;28;20025;-67
2023/03/17 00:19:32;;;;;;;6.32;2.50;;;;;;;-143.48;55.95;118439.88;5058283;28;20017;-67
2023/03/17 00:21:59;;;;;;;6.53;2.58;;;;;;;-143.48;56.11;118439.88;5058411;28;20032;-66
2023/03/17 00:24:25;;;;;;;4.78;2.50;;;;;;;-143.48;56.24;118439.88;5059635;28;20048;-66
2023/03/17 00:26:50;;;;;;;6.75;2.50;;;;;;;-143.48;56.65;118439.88;5059680;28;20127;-66
2023/03/17 00:29:16;;;;;;;5.40;2.88;;;;;;;-143.48;56.40;118439.88;5058350;28;20025;-66
2023/03/17 00:31:44;;;;;;;6.65;2.80;;;;;;;-143.48;56.71;118439.88;5059651;28;20070;-66
2023/03/17 00:34:17;;;;;;;5.43;3.25;;;;;;;-143.48;56.92;118439.88;5059446;28;20025;-68
2023/03/17 00:36:46;;;;;;;5.30;2.90;;;;;;;-143.48;56.50;118439.88;5058304;28;20029;-66
2023/03/17 00:39:15;;;;;;;3.72;2.63;;;;;;;-143.48;56.65;118439.88;5058379;28;20501;-67
2023/03/17 00:41:41;;;;;;;4.80;2.40;;;;;;;-143.48;56.67;118439.88;5059490;28;20033;-66
2023/03/17 00:44:06;;;;;;;6.38;2.75;;;;;;;-143.48;56.97;118439.88;5058764;28;20021;-66
2023/03/17 00:46:36;;;;;;;6.07;2.67;;;;;;;-143.48;56.77;118439.88;5058507;28;20068;-66
2023/03/17 00:49:09;;;;;;;4.03;2.33;;;;;;;-143.48;57.07;118439.88;5057740;28;20055;-66
2023/03/17 00:51:34;;;;;;;4.53;2.67;;;;;;;-143.48;57.37;118439.88;5057886;28;20082;-66
2023/03/17 00:54:00;;;;;;;7.50;2.75;;;;;;;-143.48;57.32;118439.88;5056422;28;20468;-66
2023/03/17 00:56:25;;;;;;;4.55;2.65;;;;;;;-143.48;57.35;118439.88;5057866;28;20025;-67
2023/03/17 00:58:51;;;;;;;8.13;2.80;;;;;;;-143.48;57.43;118439.88;5056171;28;20013;-67
2023/03/17 01:01:17;;;;;;;7.95;2.80;;;;;;;-143.48;57.52;118439.88;5057608;28;20057;-67
2023/03/17 01:03:43;;;;;;;6.45;2.88;;;;;;;-143.48;57.63;118439.88;5057095;28;20498;-67
2023/03/17 01:06:11;;;;;;;8.55;2.90;;;;;;;-143.48;57.65;118439.88;5058183;28;20020;-67
2023/03/17 01:08:38;;;;;;;7.70;3.25;;;;;;;-143.48;57.56;118439.88;5059277;28;20082;-67
2023/03/17 01:11:03;;;;;;;4.90;3.00;;;;;;;-143.48;57.87;118439.88;5059427;28;20082;-67
2023/03/17 01:13:29;;;;;;;6.30;2.92;;;;;;;-143.48;58.13;118439.88;5058132;28;20029;-67
2023/03/17 01:15:55;;;;;;;7.00;2.92;;;;;;;-143.48;57.53;118439.88;5059208;28;20056;-66
2023/03/17 01:18:22;;;;;;;8.02;3.15;;;;;;;-143.48;57.86;118439.88;5059215;28;20473;-66
2023/03/17 01:20:48;;;;;;;4.43;2.60;;;;;;;-143.48;57.59;118439.88;5059351;28;20028;-67
2023/03/17 01:23:14;;;;;;;6.90;2.85;;;;;;;-143.48;57.48;118439.88;5059177;28;20025;-66
2023/03/17 01:25:41;;;;;;;4.68;2.80;;;;;;;-143.48;57.43;118439.88;5058041;28;20025;-67
2023/03/17 01:28:11;;;;;;;6.65;3.15;;;;;;;-143.48;57.38;118439.88;5056370;28;20518;-67
2023/03/17 01:30:38;;;;;;;7.20;2.70;;;;;;;-143.48;57.05;118439.88;5055986;28;20017;-67
2023/03/17 01:33:07;;;;;;;7.20;2.90;;;;;;;-143.48;57.37;118439.88;5055642;28;20037;-67
2023/03/17 01:35:34;;;;;;;7.03;3.10;;;;;;;-143.48;57.07;118439.88;5056152;28;20082;-66
2023/03/17 01:37:59;;;;;;;6.13;2.90;;;;;;;-143.48;56.81;118439.88;5055875;28;20516;-67
2023/03/17 01:40:28;;;;;;;6.25;2.90;;;;;;;-143.48;57.21;118439.88;5055522;28;20063;-65
2023/03/17 01:43:00;;;;;;;6.82;2.90;;;;;;;-143.48;56.62;118439.88;5055742;28;20499;-67
2023/03/17 01:46:03;;;;;;;7.03;2.92;;;;;;;-143.48;56.86;118439.88;5055784;28;20025;-66
2023/03/17 01:48:32;;;;;;;4.93;2.65;;;;;;;-143.48;56.60;118439.88;5054682;28;20037;-66
2023/03/17 01:50:58;;;;;;;4.40;2.58;;;;;;;-143.48;56.49;118439.88;5054976;28;20067;-67
2023/03/17 01:53:25;;;;;;;5.80;3.05;;;;;;;-143.48;56.36;118439.88;5053923;28;20036;-68
2023/03/17 01:55:51;;;;;;;5.45;2.53;;;;;;;-143.48;56.22;118439.88;5052639;28;20029;-68
2023/03/17 01:58:20;;;;;;;6.35;3.00;;;;;;;-143.48;56.78;118439.88;5053976;28;20033;-67
2023/03/17 02:00:46;;;;;;;5.15;2.83;;;;;;;-143.48;56.43;118439.88;5053970;28;20025;-67
2023/03/17 02:03:11;;;;;;;5.15;2.90;;;;;;;-143.48;56.22;118439.88;5053821;28;20033;-67
2023/03/17 02:05:38;;;;;;;4.22;2.63;;;;;;;-143.48;56.30;118439.88;5053961;28;20052;-67
2023/03/17 02:08:10;;;;;;;4.53;2.67;;;;;;;-143.48;56.08;118439.88;5055453;28;20379;-66
2023/03/17 02:10:37;;;;;;;6.13;2.67;;;;;;;-143.48;56.42;118439.88;5055567;28;20042;-66
2023/03/17 02:13:04;;;;;;;4.70;2.83;;;;;;;-143.48;56.28;118439.88;5054078;28;20047;-66
2023/03/17 02:15:59;;;;;;;6.18;2.80;;;;;;;-143.48;55.87;118439.88;5053995;28;20369;-66
2023/03/17 02:18:24;;;;;;;4.75;2.70;;;;;;;-143.48;55.65;118439.88;5050669;28;20476;-67
2023/03/17 02:20:53;;;;;;;5.25;2.72;;;;;;;-143.48;55.94;118439.88;5053992;28;20037;-67
2023/03/17 02:23:23;;;;;;;6.75;2.83;;;;;;;-143.48;55.78;118439.88;5055225;28;20083;-65
2023/03/17 02:25:51;;;;;;;5.93;2.70;;;;;;;-143.48;56.13;118439.88;5053782;28;20029;-68
2023/03/17 02:28:29;;;;;;;4.75;2.70;;;;;;;-143.48;55.94;118439.88;5054859;28;20388;-66
2023/03/17 02:30:56;;;;;;;5.88;2.90;;;;;;;-143.48;56.06;118439.88;5053474;28;20040;-66
2023/03/17 02:33:21;;;;;;;4.97;2.65;;;;;;;-143.48;55.53;118439.88;5054782;28;20025;-66
2023/03/17 02:35:46;;;;;;;6.65;2.95;;;;;;;-143.48;56.07;118439.88;5054716;28;20111;-67
2023/03/17 02:38:12;;;;;;;4.53;2.60;;;;;;;-143.48;56.05;118439.88;5052804;28;20021;-67
2023/03/17 02:40:37;;;;;;;7.90;2.75;;;;;;;-143.48;55.64;118439.88;5054656;28;20025;-66
2023/03/17 02:43:04;;;;;;;8.35;2.80;;;;;;;-143.48;56.27;118439.88;5053741;28;20031;-66
2023/03/17 02:45:30;;;;;;;5.13;2.67;;;;;;;-143.48;55.58;118439.88;5053282;28;20433;-66
2023/03/17 02:47:56;;;;;;;10.68;2.83;;;;;;;-143.48;55.62;118439.88;5054459;28;20025;-66
2023/03/17 02:50:26;;;;;;;4.13;2.53;;;;;;;-143.48;56.49;118439.88;5054375;28;20443;-67
2023/03/17 02:52:51;;;;;;;5.68;2.50;;;;;;;-143.48;55.93;118439.88;5054416;28;20108;-67
2023/03/17 02:55:17;;;;;;;9.02;2.90;;;;;;;-143.48;56.00;118439.88;5053133;28;20459;-67
2023/03/17 02:57:42;;;;;;;5.47;2.60;;;;;;;-143.48;55.68;118439.88;5052871;28;20116;-67
2023/03/17 03:00:09;;;;;;;5.30;2.75;;;;;;;-143.48;55.77;118439.88;5054169;28;20493;-67
2023/03/17 03:02:38;;;;;;;7.15;2.85;;;;;;;-143.48;55.76;118439.88;5053894;28;20052;-66
2023/03/17 03:05:04;;;;;;;4.55;2.75;;;;;;;-143.48;55.94;118439.88;5054162;28;20104;-67
2023/03/17 03:07:31;;;;;;;7.15;2.78;;;;;;;-143.48;55.67;118439.88;5052625;28;20029;-67
2023/03/17 03:09:57;;;;;;;6.18;2.60;;;;;;;-143.48;55.54;118439.88;5054044;28;20031;-66
2023/03/17 03:12:22;;;;;;;5.55;2.60;;;;;;;-143.48;55.55;118439.88;5054018;28;20021;-66
2023/03/17 03:14:47;;;;;;;5.05;2.70;;;;;;;-143.48;55.23;118439.88;5052624;28;20031;-66
2023/03/17 03:17:13;;;;;;;4.68;2.63;;;;;;;-143.48;55.29;118439.88;5052707;28;20020;-66
2023/03/17 03:19:38;;;;;;;5.65;2.80;;;;;;;-143.48;55.46;118439.88;5052541;28;20017;-66
2023/03/17 03:22:03;;;;;;;5.85;2.60;;;;;;;-143.48;55.26;118439.88;5053879;28;20029;-66
2023/03/17 03:24:29;;;;;;;3.90;2.63;;;;;;;-143.48;55.71;118439.88;5052488;28;20027;-67
2023/03/17 03:26:54;;;;;;;5.25;2.83;;;;;;;-143.48;56.01;118439.88;5053777;28;20024;-66
2023/03/17 03:29:20;;;;;;;5.85;2.80;;;;;;;-143.48;55.97;118439.88;5052440;28;20033;-67
2023/03/17 03:31:47;;;;;;;4.78;2.55;;;;;;;-143.48;55.68;118439.88;5053730;28;20024;-67
2023/03/17 03:34:13;;;;;;;4.22;2.63;;;;;;;-143.48;55.86;118439.88;5053745;28;20025;-67
2023/03/17 03:36:38;;;;;;;5.45;2.60;;;;;;;-143.48;55.92;118439.88;5052213;28;20031;-67
2023/03/17 03:39:03;;;;;;;5.90;2.70;;;;;;;-143.48;55.49;118439.88;5059415;28;20021;-68
2023/03/17 03:41:29;;;;;;;5.47;2.92;;;;;;;-143.48;55.65;118439.88;5054732;28;20075;-67
2023/03/17 03:43:54;;;;;;;7.43;2.58;;;;;;;-143.48;55.40;118439.88;5052524;28;20021;-67
2023/03/17 03:46:19;;;;;;;7.03;2.63;;;;;;;-143.48;55.41;118439.88;5052374;28;20024;-66
2023/03/17 03:48:45;;;;;;;6.65;2.40;;;;;;;-143.48;55.30;118439.88;5053725;28;20017;-66
2023/03/17 03:51:10;;;;;;;5.13;2.50;;;;;;;-143.48;55.41;118439.88;5052746;28;20036;-67
2023/03/17 03:53:35;;;;;;;4.28;2.67;;;;;;;-143.48;55.38;118439.88;5053409;28;20021;-67
2023/03/17 03:56:01;;;;;;;4.93;2.60;;;;;;;-143.48;55.23;118439.88;5053571;28;20116;-68
2023/03/17 03:58:26;;;;;;;8.18;2.90;;;;;;;-143.48;55.12;118439.88;5053380;28;20079;-67
2023/03/17 04:00:52;;;;;;;3.97;2.53;;;;;;;-143.48;55.11;118439.88;5053137;28;20057;-68
2023/03/17 04:03:17;;;;;;;8.15;2.95;;;;;;;-143.48;54.95;118439.88;5053326;28;20028;-67
2023/03/17 04:05:43;;;;;;;4.40;2.47;;;;;;;-143.48;54.59;118439.88;5052267;28;20021;-66
2023/03/17 04:08:09;;;;;;;7.50;2.88;;;;;;;-143.48;54.74;118439.88;5051633;28;20021;-67
2023/03/17 04:10:35;;;;;;;5.80;2.50;;;;;;;-143.48;55.05;118439.88;5050284;28;20468;-67
2023/03/17 04:13:00;;;;;;;5.10;2.50;;;;;;;-143.48;55.04;118439.88;5050249;28;20036;-68
2023/03/17 04:15:26;;;;;;;5.93;2.72;;;;;;;-143.48;55.01;118439.88;5051574;28;20040;-67
2023/03/17 04:17:53;;;;;;;5.50;2.45;;;;;;;-143.48;54.85;118439.88;5050122;28;20024;-67
2023/03/17 04:20:19;;;;;;;4.80;2.50;;;;;;;-143.48;54.71;118439.88;5052114;28;20047;-67
2023/03/17 04:22:45;;;;;;;4.18;2.60;;;;;;;-143.48;55.09;118439.88;5053204;28;20369;-66
2023/03/17 04:25:13;;;;;;;4.95;2.70;;;;;;;-143.48;55.22;118439.88;5051943;28;20036;-68
2023/03/17 04:27:38;;;;;;;5.97;2.70;;;;;;;-143.48;54.84;118439.88;5053521;28;20049;-67
2023/03/17 04:30:04;;;;;;;4.93;2.80;;;;;;;-143.48;54.68;118439.88;5053261;28;20059;-67
2023/03/17 04:32:30;;;;;;;5.35;2.80;;;;;;;-143.48;55.11;118439.88;5053176;28;20111;-66
2023/03/17 04:34:56;;;;;;;4.95;2.70;;;;;;;-143.48;54.66;118439.88;5053169;28;20392;-67
2023/03/17 04:37:22;;;;;;;6.22;2.50;;;;;;;-143.48;54.96;118439.88;5053136;28;20021;-67
2023/03/17 04:39:47;;;;;;;5.10;2.75;;;;;;;-143.48;54.90;118439.88;5053349;28;20384;-66
2023/03/17 04:42:13;;;;;;;7.15;2.53;;;;;;;-143.48;54.86;118439.88;5054190;28;20055;-67
2023/03/17 04:44:38;;;;;;;6.50;3.00;;;;;;;-143.48;55.00;118439.88;5053837;28;20400;-67
2023/03/17 04:47:04;;;;;;;7.32;2.90;;;;;;;-143.48;55.06;118439.88;5054896;28;20056;-67
2023/03/17 04:49:30;;;;;;;6.32;3.00;;;;;;;-143.48;54.61;118439.88;5055093;28;20033;-67
2023/03/17 04:51:55;;;;;;;11.77;2.90;;;;;;;-143.48;54.97;118439.88;5055262;28;20425;-67
2023/03/17 04:54:21;;;;;;;8.13;3.10;;;;;;;-143.48;54.71;118439.88;5055035;28;20033;-67
2023/03/17 04:56:46;;;;;;;5.38;2.63;;;;;;;-143.48;55.29;118439.88;5054964;28;20025;-67
2023/03/17 04:59:11;;;;;;;5.78;2.70;;;;;;;-143.48;55.32;118439.88;5055199;28;20047;-67
2023/03/17 05:01:37;;;;;;;4.47;2.58;;;;;;;-143.48;54.91;118439.88;5056760;28;20045;-66
2023/03/17 05:04:02;;;;;;;5.93;2.80;;;;;;;-143.48;54.91;118439.88;5062938;28;20089;-67
2023/03/17 05:06:28;;;;;;;5.55;2.53;;;;;;;-143.48;55.09;118439.88;5070342;28;20085;-68
2023/03/17 05:08:53;;;;;;;4.00;2.33;;;;;;;-143.48;55.04;118439.88;5071410;28;20025;-67
2023/03/17 05:11:19;;;;;;;5.25;2.80;;;;;;;-143.48;55.01;118439.88;5070575;28;20059;-67
2023/03/17 05:13:44;;;;;;;9.35;2.70;;;;;;;-143.48;54.89;118439.88;5072213;28;20020;-69
2023/03/17 05:16:10;;;;;;;6.05;2.70;;;;;;;-143.48;54.84;118439.88;5071468;28;20048;-68
2023/03/17 05:18:36;;;;;;;7.20;2.50;;;;;;;-143.48;54.82;118439.88;5071916;28;20021;-68
2023/03/17 05:21:03;;;;;;;6.68;2.75;;;;;;;-143.48;55.38;118439.88;5069256;28;20085;-68
2023/03/17 05:23:29;;;;;;;4.72;2.78;;;;;;;-143.48;54.98;118439.88;5061486;28;20478;-67
2023/03/17 05:25:54;;;;;;;5.18;2.67;;;;;;;-143.48;54.95;118439.88;5058274;28;20046;-67
2023/03/17 05:28:20;;;;;;;4.95;2.45;;;;;;;-143.48;54.94;118439.88;5059108;28;20057;-67
2023/03/17 05:30:46;;;;;;;7.75;2.40;;;;;;;-143.48;55.24;118439.88;5059557;28;20021;-67
2023/03/17 05:33:13;;;;;;;4.65;2.60;;;;;;;-143.48;55.20;118439.88;5058041;28;20105;-67
2023/03/17 05:35:39;;;;;;;5.60;2.67;;;;;;;-143.48;55.10;118439.88;5056890;28;20028;-67
2023/03/17 05:38:05;;;;;;;6.20;2.97;;;;;;;-143.48;55.02;118439.88;5056536;28;20112;-67
2023/03/17 05:40:31;;;;;;;7.88;2.50;;;;;;;-143.48;54.95;118439.88;5057933;28;20565;-67
2023/03/17 05:42:56;;;;;;;6.80;2.80;;;;;;;-143.48;55.32;118439.88;5057186;28;20024;-66
2023/03/17 05:45:21;;;;;;;6.53;2.60;;;;;;;-143.48;54.95;118439.88;5056527;28;20025;-66
2023/03/17 05:47:47;;;;;;;4.97;2.38;;;;;;;-143.48;55.23;118439.88;5055052;28;20013;-68
2023/03/17 05:50:12;;;;;;;4.43;2.25;;;;;;;-143.48;55.26;118439.88;5056159;28;20529;-66
2023/03/17 05:52:38;;;;;;;7.20;2.85;;;;;;;-143.48;55.56;118439.88;5056188;28;20025;-66
2023/03/17 05:55:04;;;;;;;5.13;2.60;;;;;;;-143.48;55.22;118439.88;5055987;28;20032;-66
2023/03/17 05:57:30;;;;;;;7.53;2.63;;;;;;;-143.48;55.43;118439.88;5055753;28;20024;-68
2023/03/17 05:59:56;;;;;;;5.20;2.80;;;;;;;-143.48;55.20;118439.88;5056463;28;20494;-66
2023/03/17 06:02:21;;;;;;;6.85;2.78;;;;;;;-143.48;55.38;118439.88;5056220;28;20049;-66
2023/03/17 06:04:47;;;;;;;6.05;2.38;;;;;;;-143.48;55.41;118439.88;5056251;28;20021;-66
2023/03/17 06:07:12;;;;;;;9.65;2.80;;;;;;;-143.48;55.33;118439.88;5055754;28;20025;-67
2023/03/17 06:09:38;;;;;;;4.35;2.60;;;;;;;-143.48;55.54;118439.88;5055760;28;20036;-66
2023/03/17 06:12:03;;;;;;;5.10;2.80;;;;;;;-143.48;55.28;118439.88;5055756;28;20082;-66
2023/03/17 06:14:29;;;;;;;6.97;2.70;;;;;;;-143.48;55.70;118439.88;5054459;28;20080;-65
2023/03/17 06:16:54;;;;;;;5.75;2.80;;;;;;;-143.48;55.33;118439.88;5053895;28;20052;-66
2023/03/17 06:19:20;;;;;;;4.88;2.70;;;;;;;-143.48;55.25;118439.88;5055311;28;20129;-66
2023/03/17 06:21:45;;;;;;;5.72;2.80;;;;;;;-143.48;55.28;118439.88;5054644;28;20372;-66
2023/03/17 06:24:11;;;;;;;13.27;2.95;;;;;;;-143.48;55.18;118439.88;5056065;28;20029;-66
2023/03/17 06:26:37;;;;;;;6.30;2.67;;;;;;;-143.48;55.11;118439.88;5055272;28;20021;-65
2023/03/17 06:29:04;;;;;;;9.52;2.95;;;;;;;-143.48;55.28;118439.88;5053645;28;20491;-66
2023/03/17 06:31:29;;;;;;;5.22;2.42;;;;;;;-143.48;55.09;118439.88;5055051;28;20490;-66
2023/03/17 06:33:56;;;;;;;5.53;2.90;;;;;;;-143.48;55.04;118439.88;5055020;28;20029;-66
2023/03/17 06:36:22;;;;;;;6.38;3.05;;;;;;;-143.48;54.92;118439.88;5054875;28;20040;-66
2023/03/17 06:38:47;;;;;;;5.28;2.90;;;;;;;-143.48;54.85;118439.88;5054825;28;20021;-66
2023/03/17 06:41:13;;;;;;;5.53;3.00;;;;;;;-143.48;54.52;118439.88;5053789;28;20017;-66
2023/03/17 06:43:39;;;;;;;7.70;2.90;;;;;;;-143.48;54.73;118439.88;5054682;28;20025;-66
2023/03/17 06:46:06;;;;;;;6.68;3.00;;;;;;;-143.48;54.46;118439.88;5054714;28;20104;-65
2023/03/17 06:48:32;;;;;;;6.70;2.67;;;;;;;-143.48;54.41;118439.88;5053318;28;20021;-66
2023/03/17 06:50:58;;;;;;;7.00;3.15;;;;;;;-143.48;54.54;118439.88;5055121;28;20049;-65
2023/03/17 06:53:23;;;;;;;6.57;2.78;;;;;;;-143.48;54.02;118439.88;5055298;28;20449;-66
2023/03/17 06:55:49;;;;;;;6.63;2.60;;;;;;;-143.48;53.90;118439.88;5053645;28;20060;-67
2023/03/17 06:58:14;;;;;;;5.97;2.70;;;;;;;-143.48;53.84;118439.88;5054457;28;20058;-66
2023/03/17 07:00:40;;;;;;;4.15;2.50;;;;;;;-143.48;53.56;118439.88;5053079;28;20059;-67
2023/03/17 07:03:06;;;;;;;5.45;2.72;;;;;;;-143.48;53.43;118439.88;5053179;28;20056;-66
2023/03/17 07:05:32;;;;;;;10.48;2.63;;;;;;;-143.48;52.93;118439.88;5053087;28;20120;-66
2023/03/17 07:07:57;;;;;;;6.03;3.05;;;;;;;-143.48;52.34;118439.88;5054364;28;20035;-66
2023/03/17 07:10:23;;;;;;;6.88;2.85;;;;;;;-143.48;52.61;118439.88;5054240;28;20435;-67
2023/03/17 07:12:49;;;;;;;10.40;3.20;;;;;;;-143.48;52.66;118439.88;5052600;28;20021;-66
2023/03/17 07:15:16;;;;;;;6.38;2.80;;;;;;;-143.48;52.81;118439.88;5054118;28;20029;-67
2023/03/17 07:17:41;;;;;;;5.03;2.63;;;;;;;-143.48;52.40;118439.88;5054065;28;20392;-67
2023/03/17 07:20:08;;;;;;;4.82;2.35;;;;;;;-143.48;52.49;118439.88;5052847;28;20021;-67
2023/03/17 07:22:34;;;;;;;5.10;2.63;;;;;;;-143.48;52.50;118439.88;5053855;28;20055;-67
2023/03/17 07:24:59;;;;;;;3.95;2.50;;;;;;;-143.48;52.26;118439.88;5053822;28;20025;-67
2023/03/17 07:27:25;;;;;;;5.25;2.95;;;;;;;-143.48;52.60;118439.88;5053721;28;20484;-67
2023/03/17 07:29:51;;;;;;;6.50;2.80;;;;;;;-143.48;52.37;118439.88;5052816;28;20443;-66
2023/03/17 07:32:16;;;;;;;4.82;3.00;;;;;;;-143.48;51.99;118439.88;5052481;28;20033;-65
2023/03/17 07:34:42;;;;;;;6.45;2.60;;;;;;;-143.48;52.01;118439.88;5053606;28;20506;-66
2023/03/17 07:37:09;;;;;;;6.63;2.90;;;;;;;-143.48;51.63;118439.88;5053724;28;20473;-65
2023/03/17 07:39:34;;;;;;;7.55;2.80;;;;;;;-143.48;51.17;118439.88;5053920;28;20483;-69
2023/03/17 07:42:00;;;;;;;6.80;2.70;;;;;;;-143.48;51.42;118439.88;5053882;28;20041;-70
2023/03/17 07:44:26;;;;;;;7.72;3.05;;;;;;;-143.48;51.59;118439.88;5054273;28;20024;-69
2023/03/17 07:46:52;;;;;;;5.68;3.03;;;;;;;-143.48;50.88;118439.88;5052697;28;20021;-69
2023/03/17 07:49:18;;;;;;;7.18;3.10;;;;;;;-143.48;49.90;118439.88;5055894;28;20044;-69
2023/03/17 07:51:43;;;;;;;8.35;2.70;;;;;;;-143.48;48.53;118439.88;5055698;28;20047;-69
2023/03/17 07:54:10;;;;;;;7.43;2.70;;;;;;;-143.48;47.46;118439.88;5055201;28;20029;-69
2023/03/17 07:56:37;;;;;;;5.30;3.08;;;;;;;-143.48;46.78;118439.88;5055825;28;20472;-69
2023/03/17 07:59:02;;;;;;;6.68;2.97;;;;;;;-143.48;46.70;118439.88;5056340;28;20369;-69
2023/03/17 08:01:27;;;;;;;8.02;4.88;;;;;;;-143.48;45.47;118439.88;5056943;28;20049;-69
2023/03/17 08:03:53;;;;;;;6.63;3.03;;;;;;;-143.48;44.88;118439.88;5060919;28;20025;-69
2023/03/17 08:06:20;;;;;;;5.88;3.10;;;;;;;-143.48;42.54;118439.88;5058087;28;20029;-69
2023/03/17 08:08:46;;;;;;;8.88;3.13;;;;;;;-143.48;42.07;118439.88;5074120;28;20006;-68
2023/03/17 08:11:12;;;;;;;8.07;3.33;;;;;;;-143.48;41.69;118439.88;5059057;28;20029;-70
2023/03/17 08:13:38;;;;;;;7.32;2.72;;;;;;;-143.48;43.28;118439.88;5059976;28;20396;-69
2023/03/17 08:16:03;;;;;;;7.85;2.75;;;;;;;-143.48;43.85;118439.88;5060989;28;20025;-70
2023/03/17 08:18:29;;;;;;;7.70;3.05;;;;;;;-143.48;43.18;118439.88;5061922;28;20021;-70
2023/03/17 08:20:54;;;;;;;6.15;2.85;;;;;;;-143.48;41.69;118439.88;5056958;28;20021;-69
2023/03/17 08:23:20;;;;;;;8.15;2.85;;;;;;;-143.48;39.09;118439.88;5055834;28;20024;-68
2023/03/17 08:25:46;;;;;;;5.43;2.78;;;;;;;-143.48;40.04;118439.88;5052473;28;20056;-69
2023/03/17 08:28:14;;;;;;;7.38;2.75;;;;;;;-143.48;38.23;118439.88;5054720;28;20051;-69
2023/03/17 08:30:43;;;;;;;5.90;2.88;;;;;;;-143.48;37.42;118439.88;5053335;28;20016;-68
2023/03/17 08:33:09;;;;;;;4.50;2.72;;;;;;;-143.48;36.94;118439.88;5053202;28;20147;-69
2023/03/17 08:35:36;;;;;;;6.60;2.75;;;;;;;-143.48;37.10;118439.88;5053288;28;20025;-70
2023/03/17 08:38:01;;;;;;;5.78;2.80;;;;;;;-143.48;36.05;118439.88;5056625;28;20104;-69
2023/03/17 08:40:27;;;;;;;8.90;2.90;;;;;;;-143.48;35.42;118439.88;5055826;28;20079;-69
2023/03/17 08:42:52;;;;;;;8.82;2.70;;;;;;;-143.48;34.70;118439.88;5055653;28;20024;-69
2023/03/17 08:45:18;;;;;;;6.90;2.67;;;;;;;-143.48;34.95;118439.88;5055605;28;20085;-69
2023/03/17 08:47:45;;;;;;;6.43;2.78;;;;;;;-143.48;34.41;118439.88;5056908;28;20492;-69
2023/03/17 08:50:17;;;;;;;5.13;2.80;;;;;;;-143.48;34.72;118439.88;5056966;28;20025;-69
2023/03/17 08:52:43;;;;;;;5.72;2.85;;;;;;;-143.48;34.33;118439.88;5058303;28;20032;-70
2023/03/17 08:55:09;;;;;;;8.13;3.10;;;;;;;-143.48;34.89;118439.88;5055445;28;20043;-69
2023/03/17 08:57:35;;;;;;;6.55;3.00;;;;;;;-143.48;34.39;118439.88;5055904;28;20098;-69
2023/03/17 09:00:08;;;;;;;7.47;3.20;;;;;;;-143.48;35.77;118439.88;5055577;28;20080;-70
2023/03/17 09:02:33;;;;;;;4.72;2.88;;;;;;;-143.48;35.41;118439.88;5056637;28;20056;-69
2023/03/17 09:04:59;;;;;;;5.65;2.95;;;;;;;-143.48;35.82;118439.88;5055536;28;20105;-69
2023/03/17 09:07:24;;;;;;;8.02;3.15;;;;;;;-143.48;35.13;118439.88;5057104;28;20522;-69
2023/03/17 09:09:50;;;;;;;5.65;2.92;;;;;;;-143.48;35.36;118439.88;5056926;28;20206;-69
2023/03/17 09:12:15;;;;;;;8.95;3.08;;;;;;;-143.48;35.63;118439.88;5055346;28;20025;-69
2023/03/17 09:14:41;;;;;;;6.85;3.10;;;;;;;-143.48;35.52;118439.88;5056453;28;20403;-70
2023/03/17 09:17:10;;;;;;;6.22;3.00;;;;;;;-143.48;36.40;118439.88;5057045;28;20021;-73
2023/03/17 09:19:35;;;;;;;9.05;3.38;;;;;;;-143.48;37.08;118439.88;5058059;28;20533;-71
2023/03/17 09:22:01;;;;;;;9.35;3.08;;;;;;;-143.48;36.64;118439.88;5056499;28;20025;-71
2023/03/17 09:24:27;;;;;;;8.40;3.08;;;;;;;-143.48;36.35;118439.88;5056361;28;20021;-72
2023/03/17 09:27:00;;;;;;;10.73;3.20;;;;;;;-143.48;36.48;118439.88;5055351;28;20131;-69
2023/03/17 09:29:26;;;;;;;8.68;2.88;;;;;;;-143.48;39.83;118439.88;5055891;28;20036;-70
2023/03/17 09:31:55;;;;;;;11.57;3.60;;;;;;;-143.48;39.12;118439.88;5056730;28;20029;-69
2023/03/17 09:34:21;;;;;;;6.85;3.53;;;;;;;-143.48;37.42;118439.88;5054800;28;20075;-69
2023/03/17 09:36:47;;;;;;;8.95;3.40;;;;;;;-143.48;37.97;118439.88;5055256;28;20025;-72
2023/03/17 09:39:12;;;;;;;7.97;3.33;;;;;;;-143.48;37.50;118439.88;5054931;28;20021;-69
2023/03/17 09:42:05;;;;;;;9.18;3.75;;;;;;;-143.48;35.91;118439.88;5054773;28;20121;-70
2023/03/17 09:44:33;;;;;;;10.65;3.33;;;;;;;-143.48;35.94;118439.88;5054843;28;20033;-66
2023/03/17 09:47:42;;;;;;;7.63;3.75;;;;;;;-143.48;36.63;118439.88;5055051;28;20039;-71
2023/03/17 09:50:18;;;;;;;6.95;3.60;;;;;;;-143.48;35.63;118439.88;5054616;28;20024;-69
2023/03/17 09:52:44;;;;;;;9.75;3.70;;;;;;;-143.48;35.95;118439.88;5054691;28;20028;-70
2023/03/17 09:55:21;;;;;;;6.28;3.55;;;;;;;-143.48;35.74;118439.88;5055623;28;20107;-69
2023/03/17 09:57:51;;;;;;;9.30;3.70;;;;;;;-143.48;34.49;118439.88;5055735;28;20017;-69
2023/03/17 10:00:23;;;;;;;12.35;3.63;;;;;;;-143.48;36.34;118439.88;5055588;28;20112;-70
2023/03/17 10:02:48;;;;;;;10.55;3.72;;;;;;;-143.48;36.95;118439.88;5055124;28;20514;-71
2023/03/17 10:05:19;;;;;;;6.43;3.47;;;;;;;-143.48;38.77;118439.88;5054468;28;20140;-69
2023/03/17 10:08:03;;;;;;;9.23;3.45;;;;;;;-143.48;39.16;118439.88;5053562;28;20154;-68
2023/03/17 10:10:36;;;;;;;10.30;3.90;;;;;;;-143.48;39.17;118439.88;5055594;28;20027;-69
2023/03/17 10:13:07;;;;;;;13.75;3.95;;;;;;;-143.48;39.73;118439.88;5055561;28;20036;-68
2023/03/17 10:16:13;;;;;;;6.28;3.55;;;;;;;-143.48;39.51;118439.88;5055145;28;20106;-69
2023/03/17 10:18:45;;;;;;;8.80;3.40;;;;;;;-143.48;40.15;118439.88;5015777;28;20065;-68
2023/03/17 10:21:17;;;;;;;9.27;4.00;;;;;;;-143.48;39.74;118439.88;5031536;28;20029;-69
2023/03/17 10:23:44;;;;;;;10.35;3.60;;;;;;;-143.48;39.35;118439.88;5035155;28;20041;-69
2023/03/17 10:26:33;;;;;;;6.97;3.88;;;;;;;-143.48;40.98;118439.88;5053777;28;20056;-69
2023/03/17 10:29:02;;;;;;;8.00;4.00;;;;;;;-143.48;40.68;118439.88;5052942;28;20025;-68
2023/03/17 10:31:34;;;;;;;7.60;3.80;;;;;;;-143.48;40.03;118439.88;5054030;28;20111;-68
2023/03/17 10:34:20;;;;;;;8.70;3.80;;;;;;;-143.48;40.65;118439.88;5053204;28;20107;-69
2023/03/17 10:36:49;;;;;;;7.55;3.90;;;;;;;-143.48;41.40;118439.88;5055205;28;20029;-66
2023/03/17 10:39:20;;;;;;;12.32;4.10;;;;;;;-143.48;39.99;118439.88;5054924;28;20357;-68
2023/03/17 10:41:53;;;;;;;11.68;4.07;;;;;;;-143.48;39.42;118439.88;5054674;28;20028;-67
2023/03/17 10:44:36;;;;;;;;;;;;;;;-143.48;40.18;118439.88;5055503;28;20036;-68
2023/03/17 10:47:02;;;;;;;7.53;3.70;;;;;;;-143.48;41.17;118439.88;5054647;28;19970;-67
2023/03/17 10:49:34;;;;;;;10.00;4.10;;;;;;;-143.48;42.78;118439.88;5053244;28;20435;-66
2023/03/17 10:51:59;;;;;;;8.43;3.90;;;;;;;-143.48;43.39;118439.88;5054266;28;20112;-67
2023/03/17 10:54:25;;;;;;;5.90;4.03;;;;;;;-143.48;43.35;118439.88;5054754;28;20099;-68
2023/03/17 10:57:00;;;;;;;9.68;4.10;;;;;;;-143.48;42.34;118439.88;5054324;28;20029;-68
2023/03/17 10:59:36;;;;;;;9.20;4.60;;;;;;;-143.48;42.26;118439.88;5053172;28;20418;-69
2023/03/17 11:02:16;;;;;;;6.75;3.92;;;;;;;-143.48;43.08;118439.88;5054262;28;20564;-67
2023/03/17 11:04:42;;;;;;;10.60;4.20;;;;;;;-143.48;43.27;118439.88;5055494;28;20108;-67
2023/03/17 11:07:20;;;;;;;12.00;4.20;;;;;;;-143.48;43.71;118439.88;5053372;28;20031;-69
2023/03/17 11:09:56;;;;;;;9.43;3.83;;;;;;;-143.48;43.80;118439.88;5052325;28;20535;-68
2023/03/17 11:12:38;;;;;;;11.88;6.25;;;;;;;-143.48;43.71;118439.88;5054280;28;20029;-70